KSNS/SNS METAR and TAF weather

Enter ICAO airport designator
Station Type Date Time Source
KSNS METAR 2020/07/13 13:53 UTC NOAA

KSNS 131353Z 29007KT 5SM BR OVC005 14/12 A2992 RMK AO2 SLP141 T01390117


Station Type Date Time Source
KSNS Decoded METAR 2020/07/13 13:53 UTC NOAA

SALINAS MUNICIPAL AIRPORT, CA, United States (KSNS) 36-40N 121-36W 30M
Jul 13, 2020 - 09:53 AM EDT / 2020.07.13 1353 UTC
Wind: from the WNW (290 degrees) at 8 MPH (7 KT):0
Visibility: 5 mile(s):0
Sky conditions: overcast
Weather: mist
Temperature: 57.0 F (13.9 C)
Dew Point: 53.1 F (11.7 C)
Relative Humidity: 86%
Pressure (altimeter): 29.92 in. Hg (1013 hPa)
ob: KSNS 131353Z 29007KT 5SM BR OVC005 14/12 A2992 RMK AO2 SLP141 T01390117
cycle: 14

Station Type Date Time Source
KSNS TAF 2020/07/13 12:42 UTC NOAA

TAF KSNS 131139Z 1312/1412 30005KT 2SM BR OVC002
TEMPO 1312/1316 1/4SM FG VV001
FM131700 30007KT P6SM BKN010
FM131800 30010KT P6SM FEW010
FM132000 29014G19KT P6SM FEW012
FM140200 30012KT P6SM OVC008

Example: see airport list